SZN909 GOBD-GABS
Flight info
| Callsign | SZN909 |
|---|---|
| Flight time | N/A |
| Altitude | 37000 |
| Route | NURAS1B NURAS DCT SISNU UA601 PINVO DCT BIDOK BIDOK5D |
| Aircraft | A339/H-SADE1E2E3GHIJ3J5M1P2RWXY/LB2D1 |
Departure
| Time | 2026-05-08 23:05 |
|---|---|
| Airport | Blaise Diagne International Airport (GOBD) |
Arrival
| Time | N/A |
|---|---|
| Airport | Modibo Keita International Airport (GABS) |
| Time | Latitude | Longitude | Altitude | Speed | Heading |
|---|---|---|---|---|---|
| 2026-05-08 22:33 | 14.67080 | -17.06864 | 306 ft | 0 kts | 90° |
| 2026-05-08 22:53 | 14.67080 | -17.06870 | 306 ft | 2 kts | 90° |
| 2026-05-08 22:53 | 14.67080 | -17.06887 | 306 ft | 3 kts | 89° |
| 2026-05-08 22:53 | 14.67081 | -17.06907 | 306 ft | 3 kts | 105° |
| 2026-05-08 22:53 | 14.67090 | -17.06926 | 306 ft | 3 kts | 131° |
| 2026-05-08 22:54 | 14.67106 | -17.06939 | 306 ft | 3 kts | 155° |
| 2026-05-08 22:54 | 14.67126 | -17.06943 | 306 ft | 1 kts | 178° |
| 2026-05-08 22:55 | 14.67111 | -17.06943 | 306 ft | 4 kts | 178° |
| 2026-05-08 22:55 | 14.67075 | -17.06941 | 306 ft | 0 kts | 178° |
| 2026-05-08 22:57 | 14.67072 | -17.06941 | 306 ft | 2 kts | 181° |
| 2026-05-08 22:57 | 14.67053 | -17.06960 | 306 ft | 6 kts | 254° |
| 2026-05-08 22:57 | 14.67059 | -17.07002 | 306 ft | 6 kts | 282° |
| 2026-05-08 22:58 | 14.67066 | -17.07040 | 306 ft | 8 kts | 269° |
| 2026-05-08 22:58 | 14.67064 | -17.07049 | 306 ft | 0 kts | 255° |
| 2026-05-08 22:58 | 14.67062 | -17.07059 | 306 ft | 3 kts | 255° |
| 2026-05-08 22:58 | 14.67037 | -17.07085 | 306 ft | 7 kts | 200° |
| 2026-05-08 22:59 | 14.66978 | -17.07091 | 306 ft | 10 kts | 179° |
| 2026-05-08 22:59 | 14.66899 | -17.07090 | 306 ft | 12 kts | 180° |
| 2026-05-08 22:59 | 14.66806 | -17.07089 | 306 ft | 14 kts | 180° |
| 2026-05-08 22:59 | 14.66704 | -17.07089 | 306 ft | 15 kts | 180° |
| 2026-05-08 23:00 | 14.66593 | -17.07090 | 306 ft | 16 kts | 180° |
| 2026-05-08 23:00 | 14.66475 | -17.07089 | 306 ft | 17 kts | 179° |
| 2026-05-08 23:00 | 14.66352 | -17.07086 | 306 ft | 18 kts | 177° |
| 2026-05-08 23:00 | 14.66225 | -17.07080 | 306 ft | 18 kts | 178° |
| 2026-05-08 23:01 | 14.66095 | -17.07077 | 306 ft | 19 kts | 182° |
| 2026-05-08 23:01 | 14.65963 | -17.07081 | 306 ft | 19 kts | 180° |
| 2026-05-08 23:01 | 14.65828 | -17.07082 | 306 ft | 19 kts | 179° |
| 2026-05-08 23:01 | 14.65692 | -17.07081 | 306 ft | 20 kts | 180° |
| 2026-05-08 23:02 | 14.65557 | -17.07085 | 306 ft | 15 kts | 201° |
| 2026-05-08 23:02 | 14.65530 | -17.07129 | 306 ft | 0 kts | 267° |
| 2026-05-08 23:04 | 14.65528 | -17.07157 | 306 ft | 10 kts | 267° |
| 2026-05-08 23:04 | 14.65556 | -17.07255 | 306 ft | 15 kts | 325° |
| 2026-05-08 23:04 | 14.65708 | -17.07273 | 306 ft | 42 kts | 1° |
| 2026-05-08 23:05 | 14.66171 | -17.07277 | 306 ft | 90 kts | 359° |
| 2026-05-08 23:05 | 14.66955 | -17.07281 | 306 ft | 135 kts | 360° |
| 2026-05-08 23:05 | 14.67929 | -17.07275 | 755 ft | 133 kts | 2° |
| 2026-05-08 23:05 | 14.68849 | -17.07239 | 1280 ft | 132 kts | 0° |
| 2026-05-08 23:06 | 14.69783 | -17.07226 | 1675 ft | 139 kts | 1° |
| 2026-05-08 23:06 | 14.70791 | -17.07199 | 1975 ft | 155 kts | 1° |
| 2026-05-08 23:06 | 14.71961 | -17.07172 | 2102 ft | 182 kts | 0° |
| 2026-05-08 23:06 | 14.73340 | -17.07144 | 2193 ft | 215 kts | 0° |
| 2026-05-08 23:07 | 14.74929 | -17.07114 | 2314 ft | 247 kts | 0° |
| 2026-05-08 23:07 | 14.76674 | -17.07082 | 3014 ft | 252 kts | 0° |
| 2026-05-08 23:07 | 14.78448 | -17.07028 | 3702 ft | 259 kts | 5° |
| 2026-05-08 23:07 | 14.80183 | -17.06466 | 4496 ft | 266 kts | 31° |
| 2026-05-08 23:08 | 14.81525 | -17.05152 | 5323 ft | 271 kts | 57° |
| 2026-05-08 23:08 | 14.82195 | -17.03344 | 5907 ft | 274 kts | 82° |
| 2026-05-08 23:08 | 14.82270 | -17.01363 | 6617 ft | 275 kts | 89° |
| 2026-05-08 23:08 | 14.82301 | -16.99380 | 7392 ft | 278 kts | 89° |
| 2026-05-08 23:09 | 14.82313 | -16.97382 | 8170 ft | 279 kts | 89° |
| 2026-05-08 23:09 | 14.82341 | -16.95360 | 8921 ft | 282 kts | 89° |
| 2026-05-08 23:09 | 14.82365 | -16.93328 | 9665 ft | 285 kts | 90° |
| 2026-05-08 23:09 | 14.82387 | -16.91264 | 10323 ft | 292 kts | 90° |
| 2026-05-08 23:10 | 14.82360 | -16.89069 | 10443 ft | 319 kts | 95° |
| 2026-05-08 23:10 | 14.82005 | -16.86715 | 10606 ft | 341 kts | 105° |
| 2026-05-08 23:10 | 14.81250 | -16.84431 | 11385 ft | 342 kts | 114° |
| 2026-05-08 23:10 | 14.80304 | -16.82129 | 12103 ft | 347 kts | 114° |
| 2026-05-08 23:11 | 14.79673 | -16.80605 | 12589 ft | 349 kts | 114° |
| 2026-05-08 23:11 | 14.78705 | -16.78291 | 13290 ft | 353 kts | 114° |
| 2026-05-08 23:11 | 14.77712 | -16.75946 | 13975 ft | 358 kts | 115° |
| 2026-05-08 23:11 | 14.76702 | -16.73573 | 14637 ft | 363 kts | 115° |
| 2026-05-08 23:12 | 14.75337 | -16.70388 | 15467 ft | 370 kts | 115° |
| 2026-05-08 23:12 | 14.74284 | -16.67941 | 16108 ft | 374 kts | 115° |
| 2026-05-08 23:12 | 14.73220 | -16.65471 | 16727 ft | 379 kts | 115° |
| 2026-05-08 23:12 | 14.72141 | -16.62971 | 17349 ft | 383 kts | 115° |
| 2026-05-08 23:13 | 14.71050 | -16.60445 | 17951 ft | 388 kts | 115° |
| 2026-05-08 23:13 | 14.70304 | -16.58719 | 18345 ft | 391 kts | 115° |
| 2026-05-08 23:13 | 14.68830 | -16.55302 | 19105 ft | 397 kts | 115° |
| 2026-05-08 23:13 | 14.67701 | -16.52688 | 19662 ft | 401 kts | 115° |
| 2026-05-08 23:14 | 14.66556 | -16.50040 | 20167 ft | 407 kts | 115° |
| 2026-05-08 23:14 | 14.65393 | -16.47353 | 20710 ft | 411 kts | 116° |
| 2026-05-08 23:14 | 14.64222 | -16.44648 | 21211 ft | 416 kts | 116° |
| 2026-05-08 23:14 | 14.63032 | -16.41901 | 21712 ft | 420 kts | 116° |
| 2026-05-08 23:15 | 14.61833 | -16.39133 | 22192 ft | 425 kts | 116° |
| 2026-05-08 23:15 | 14.61028 | -16.37286 | 22492 ft | 428 kts | 116° |
| 2026-05-08 23:15 | 14.59802 | -16.34470 | 22936 ft | 433 kts | 116° |
| 2026-05-08 23:15 | 14.58562 | -16.31617 | 23414 ft | 436 kts | 116° |
| 2026-05-08 23:16 | 14.56903 | -16.27790 | 24029 ft | 442 kts | 116° |
| 2026-05-08 23:16 | 14.56066 | -16.25865 | 24280 ft | 445 kts | 116° |
| 2026-05-08 23:16 | 14.54793 | -16.22938 | 24755 ft | 447 kts | 116° |
| 2026-05-08 23:16 | 14.53080 | -16.18996 | 25295 ft | 453 kts | 116° |
| 2026-05-08 23:17 | 14.52225 | -16.17028 | 25573 ft | 455 kts | 116° |
| 2026-05-08 23:17 | 14.50924 | -16.14033 | 25992 ft | 458 kts | 117° |
| 2026-05-08 23:17 | 14.49617 | -16.11028 | 26365 ft | 462 kts | 117° |
| 2026-05-08 23:17 | 14.47859 | -16.06989 | 26857 ft | 467 kts | 117° |
| 2026-05-08 23:18 | 14.46525 | -16.03928 | 27215 ft | 471 kts | 117° |
| 2026-05-08 23:18 | 14.45172 | -16.00822 | 27576 ft | 474 kts | 117° |
| 2026-05-08 23:18 | 14.44256 | -15.98718 | 27815 ft | 476 kts | 117° |
| 2026-05-08 23:18 | 14.42448 | -15.94569 | 28270 ft | 481 kts | 117° |
| 2026-05-08 23:19 | 14.41522 | -15.92444 | 28504 ft | 483 kts | 117° |
| 2026-05-08 23:19 | 14.39438 | -15.87664 | 29028 ft | 487 kts | 117° |
| 2026-05-08 23:19 | 14.37590 | -15.83428 | 29400 ft | 491 kts | 117° |
| 2026-05-08 23:19 | 14.33814 | -15.74781 | 30243 ft | 498 kts | 118° |
| 2026-05-08 23:20 | 14.31927 | -15.70459 | 30729 ft | 500 kts | 118° |
| 2026-05-08 23:20 | 14.29092 | -15.63971 | 31430 ft | 502 kts | 118° |
| 2026-05-08 23:20 | 14.26204 | -15.57367 | 32346 ft | 499 kts | 118° |
| 2026-05-08 23:20 | 14.23360 | -15.50866 | 33251 ft | 494 kts | 118° |
| 2026-05-08 23:21 | 14.21054 | -15.44219 | 34176 ft | 495 kts | 109° |
| 2026-05-08 23:21 | 14.19212 | -15.37378 | 34843 ft | 494 kts | 109° |
| 2026-05-08 23:21 | 14.17377 | -15.30556 | 35499 ft | 494 kts | 109° |
| 2026-05-08 23:21 | 14.15556 | -15.23759 | 36215 ft | 492 kts | 109° |
| 2026-05-08 23:22 | 14.13977 | -15.17854 | 36741 ft | 491 kts | 109° |
| 2026-05-08 23:22 | 14.13067 | -15.14446 | 36890 ft | 494 kts | 109° |
| 2026-05-08 23:22 | 14.11228 | -15.07568 | 36936 ft | 500 kts | 109° |
| 2026-05-08 23:23 | 14.09383 | -15.00653 | 36937 ft | 499 kts | 109° |
| 2026-05-08 23:23 | 14.07552 | -14.93784 | 36931 ft | 494 kts | 109° |
| 2026-05-08 23:24 | 14.05743 | -14.86996 | 36930 ft | 489 kts | 109° |
| 2026-05-08 23:24 | 14.03939 | -14.80273 | 36926 ft | 485 kts | 110° |
| 2026-05-08 23:25 | 14.02134 | -14.73645 | 36913 ft | 484 kts | 110° |
| 2026-05-08 23:25 | 14.00313 | -14.66958 | 36905 ft | 485 kts | 110° |
| 2026-05-08 23:26 | 13.98486 | -14.60257 | 36904 ft | 487 kts | 109° |
| 2026-05-08 23:26 | 13.96652 | -14.53508 | 36909 ft | 491 kts | 110° |
| 2026-05-08 23:27 | 13.94809 | -14.46730 | 36883 ft | 492 kts | 110° |
| 2026-05-08 23:27 | 13.92978 | -14.39996 | 36875 ft | 489 kts | 110° |
| 2026-05-08 23:28 | 13.91149 | -14.33273 | 36874 ft | 486 kts | 110° |
| 2026-05-08 23:28 | 13.89327 | -14.26584 | 36861 ft | 484 kts | 110° |
| 2026-05-08 23:29 | 13.87509 | -14.19914 | 36848 ft | 484 kts | 110° |
| 2026-05-08 23:29 | 13.85693 | -14.13257 | 36846 ft | 483 kts | 110° |
| 2026-05-08 23:30 | 13.83873 | -14.06595 | 36846 ft | 484 kts | 110° |
| 2026-05-08 23:30 | 13.82048 | -13.99922 | 36845 ft | 485 kts | 110° |
| 2026-05-08 23:31 | 13.80231 | -13.93279 | 36845 ft | 485 kts | 110° |
| 2026-05-08 23:31 | 13.78427 | -13.86709 | 36755 ft | 486 kts | 110° |
| 2026-05-08 23:32 | 13.76567 | -13.79930 | 36838 ft | 483 kts | 110° |
| 2026-05-08 23:32 | 13.74747 | -13.73303 | 36845 ft | 482 kts | 109° |
| 2026-05-08 23:33 | 13.73839 | -13.69989 | 37156 ft | 473 kts | 109° |
| 2026-05-08 23:33 | 13.72956 | -13.66759 | 37166 ft | 476 kts | 109° |
| 2026-05-08 23:33 | 13.72212 | -13.63378 | 36949 ft | 484 kts | 105° |
| 2026-05-08 23:33 | 13.72035 | -13.59942 | 36633 ft | 496 kts | 68° |
| 2026-05-08 23:34 | 13.73109 | -13.57807 | 34959 ft | 511 kts | 43° |